sensor_id;sensor_type;location;lat;lon;timestamp;pressure;altitude;pressure_sealevel;temperature;humidity
1616;BME280;801;47.982;7.810;2022-11-15T03:30:21;98236.06;;;12.17;100.00
1616;BME280;801;47.982;7.810;2022-11-15T03:32:50;98228.75;;;12.23;100.00
1616;BME280;801;47.982;7.810;2022-11-15T03:35:21;98227.25;;;12.41;100.00
1616;BME280;801;47.982;7.810;2022-11-15T03:37:51;98233.78;;;12.35;100.00
1616;BME280;801;47.982;7.810;2022-11-15T03:40:22;98232.34;;;12.48;100.00
1616;BME280;801;47.982;7.810;2022-11-15T03:42:56;98229.13;;;12.45;100.00
1616;BME280;801;47.982;7.810;2022-11-15T03:45:29;98230.09;;;12.20;100.00
1616;BME280;801;47.982;7.810;2022-11-15T03:47:59;98220.97;;;12.21;100.00
1616;BME280;801;47.982;7.810;2022-11-15T03:50:28;98218.00;;;12.18;100.00
1616;BME280;801;47.982;7.810;2022-11-15T03:52:55;98216.19;;;12.03;100.00
1616;BME280;801;47.982;7.810;2022-11-15T03:55:24;98210.91;;;11.88;100.00
1616;BME280;801;47.982;7.810;2022-11-15T03:57:52;98216.47;;;12.07;100.00
1616;BME280;801;47.982;7.810;2022-11-15T04:00:20;98218.41;;;11.96;100.00
1616;BME280;801;47.982;7.810;2022-11-15T04:02:48;98221.38;;;11.94;100.00
1616;BME280;801;47.982;7.810;2022-11-15T04:05:14;98223.31;;;11.83;100.00
1616;BME280;801;47.982;7.810;2022-11-15T04:07:41;98220.34;;;11.80;100.00
1616;BME280;801;47.982;7.810;2022-11-15T04:10:09;98224.94;;;11.79;100.00
1616;BME280;801;47.982;7.810;2022-11-15T04:12:37;98219.06;;;11.72;100.00
1616;BME280;801;47.982;7.810;2022-11-15T04:15:07;98225.25;;;11.62;100.00
1616;BME280;801;47.982;7.810;2022-11-15T04:17:39;98226.00;;;11.78;100.00
1616;BME280;801;47.982;7.810;2022-11-15T04:20:10;98222.03;;;11.60;100.00
1616;BME280;801;47.982;7.810;2022-11-15T04:22:59;98231.94;;;11.75;100.00
1616;BME280;801;47.982;7.810;2022-11-15T04:25:44;98230.19;;;11.50;100.00
1616;BME280;801;47.982;7.810;2022-11-15T04:28:11;98224.47;;;11.62;100.00
1616;BME280;801;47.982;7.810;2022-11-15T04:30:38;98232.03;;;11.50;100.00
1616;BME280;801;47.982;7.810;2022-11-15T04:33:05;98231.03;;;11.35;100.00
1616;BME280;801;47.982;7.810;2022-11-15T04:35:33;98221.06;;;11.36;100.00
1616;BME280;801;47.982;7.810;2022-11-15T04:38:00;98219.63;;;11.64;100.00
1616;BME280;801;47.982;7.810;2022-11-15T04:40:26;98216.97;;;11.59;100.00
1616;BME280;801;47.982;7.810;2022-11-15T04:42:52;98221.22;;;11.65;100.00
1616;BME280;801;47.982;7.810;2022-11-15T04:45:19;98216.97;;;11.59;100.00
1616;BME280;801;47.982;7.810;2022-11-15T04:47:46;98226.81;;;11.74;100.00
1616;BME280;801;47.982;7.810;2022-11-15T04:50:13;98228.50;;;11.64;100.00
1616;BME280;801;47.982;7.810;2022-11-15T04:52:42;98225.63;;;11.46;100.00
1616;BME280;801;47.982;7.810;2022-11-15T04:55:09;98215.47;;;11.87;100.00
1616;BME280;801;47.982;7.810;2022-11-15T04:57:37;98217.34;;;11.92;100.00
1616;BME280;801;47.982;7.810;2022-11-15T05:00:04;98210.38;;;11.86;100.00
1616;BME280;801;47.982;7.810;2022-11-15T05:02:31;98213.59;;;11.93;100.00
1616;BME280;801;47.982;7.810;2022-11-15T05:05:12;98203.88;;;11.87;100.00
1616;BME280;801;47.982;7.810;2022-11-15T05:07:38;98202.28;;;11.80;100.00
1616;BME280;801;47.982;7.810;2022-11-15T05:10:07;98202.03;;;11.82;100.00
1616;BME280;801;47.982;7.810;2022-11-15T05:12:34;98202.91;;;11.72;100.00
1616;BME280;801;47.982;7.810;2022-11-15T05:15:00;98204.09;;;11.40;100.00
1616;BME280;801;47.982;7.810;2022-11-15T05:17:27;98208.88;;;11.59;100.00
1616;BME280;801;47.982;7.810;2022-11-15T05:19:54;98202.13;;;11.56;100.00
1616;BME280;801;47.982;7.810;2022-11-15T05:22:20;98190.72;;;11.80;100.00
1616;BME280;801;47.982;7.810;2022-11-15T05:24:47;98199.06;;;11.89;100.00
1616;BME280;801;47.982;7.810;2022-11-15T05:27:15;98193.38;;;11.95;100.00
1616;BME280;801;47.982;7.810;2022-11-15T05:29:41;98191.25;;;11.92;100.00
1616;BME280;801;47.982;7.810;2022-11-15T05:32:08;98198.53;;;11.81;100.00
1616;BME280;801;47.982;7.810;2022-11-15T05:34:35;98192.69;;;11.64;100.00
1616;BME280;801;47.982;7.810;2022-11-15T05:37:03;98187.22;;;11.84;100.00
1616;BME280;801;47.982;7.810;2022-11-15T05:39:30;98183.97;;;11.93;100.00
1616;BME280;801;47.982;7.810;2022-11-15T05:41:59;98182.91;;;11.83;100.00
1616;BME280;801;47.982;7.810;2022-11-15T05:44:30;98178.88;;;11.86;100.00
1616;BME280;801;47.982;7.810;2022-11-15T05:46:57;98178.16;;;11.70;100.00
1616;BME280;801;47.982;7.810;2022-11-15T05:49:27;98170.84;;;11.76;100.00
1616;BME280;801;47.982;7.810;2022-11-15T05:51:57;98164.66;;;11.75;100.00
1616;BME280;801;47.982;7.810;2022-11-15T05:54:24;98173.00;;;11.74;100.00
1616;BME280;801;47.982;7.810;2022-11-15T05:56:52;98171.66;;;11.71;100.00
1616;BME280;801;47.982;7.810;2022-11-15T05:59:18;98168.63;;;11.83;100.00
1616;BME280;801;47.982;7.810;2022-11-15T06:01:47;98165.47;;;11.71;100.00
1616;BME280;801;47.982;7.810;2022-11-15T06:04:13;98172.81;;;11.60;100.00
1616;BME280;801;47.982;7.810;2022-11-15T06:06:40;98169.66;;;11.48;100.00
1616;BME280;801;47.982;7.810;2022-11-15T06:09:06;98170.44;;;11.48;100.00
1616;BME280;801;47.982;7.810;2022-11-15T06:11:33;98171.22;;;11.59;100.00
1616;BME280;801;47.982;7.810;2022-11-15T06:14:00;98160.19;;;11.55;100.00
1616;BME280;801;47.982;7.810;2022-11-15T06:16:26;98164.69;;;11.70;100.00
1616;BME280;801;47.982;7.810;2022-11-15T06:18:54;98156.63;;;11.65;100.00
1616;BME280;801;47.982;7.810;2022-11-15T06:21:21;98166.31;;;11.66;100.00
1616;BME280;801;47.982;7.810;2022-11-15T06:23:48;98160.69;;;11.62;100.00
1616;BME280;801;47.982;7.810;2022-11-15T06:26:14;98154.94;;;11.74;100.00
1616;BME280;801;47.982;7.810;2022-11-15T06:28:41;98160.31;;;11.79;100.00
1616;BME280;801;47.982;7.810;2022-11-15T06:31:09;98161.09;;;11.85;100.00
1616;BME280;801;47.982;7.810;2022-11-15T06:33:36;98168.19;;;11.71;100.00
1616;BME280;801;47.982;7.810;2022-11-15T06:36:07;98165.75;;;11.69;100.00
1616;BME280;801;47.982;7.810;2022-11-15T06:38:35;98164.06;;;11.83;100.00
1616;BME280;801;47.982;7.810;2022-11-15T06:41:02;98163.91;;;11.64;100.00
1616;BME280;801;47.982;7.810;2022-11-15T06:43:29;98162.50;;;11.77;100.00
1616;BME280;801;47.982;7.810;2022-11-15T06:45:57;98149.44;;;12.00;100.00
1616;BME280;801;47.982;7.810;2022-11-15T06:48:24;98161.16;;;11.75;100.00
1616;BME280;801;47.982;7.810;2022-11-15T06:50:51;98166.19;;;11.97;100.00
1616;BME280;801;47.982;7.810;2022-11-15T06:53:19;98155.16;;;11.83;100.00
1616;BME280;801;47.982;7.810;2022-11-15T06:55:46;98159.25;;;11.75;100.00
1616;BME280;801;47.982;7.810;2022-11-15T06:58:12;98155.47;;;11.76;100.00
1616;BME280;801;47.982;7.810;2022-11-15T07:00:39;98152.72;;;11.92;100.00
1616;BME280;801;47.982;7.810;2022-11-15T07:03:06;98153.25;;;11.99;100.00
1616;BME280;801;47.982;7.810;2022-11-15T07:05:33;98152.97;;;11.95;100.00
1616;BME280;801;47.982;7.810;2022-11-15T07:08:00;98150.00;;;11.97;100.00
1616;BME280;801;47.982;7.810;2022-11-15T07:10:28;98154.72;;;11.71;100.00
1616;BME280;801;47.982;7.810;2022-11-15T07:12:55;98154.25;;;12.03;100.00
1616;BME280;801;47.982;7.810;2022-11-15T07:15:24;98161.50;;;12.08;100.00
1616;BME280;801;47.982;7.810;2022-11-15T07:17:51;98162.59;;;12.07;100.00
1616;BME280;801;47.982;7.810;2022-11-15T07:20:18;98152.66;;;12.02;100.00
1616;BME280;801;47.982;7.810;2022-11-15T07:22:45;98157.56;;;11.95;100.00
1616;BME280;801;47.982;7.810;2022-11-15T07:25:11;98156.38;;;12.11;100.00
1616;BME280;801;47.982;7.810;2022-11-15T07:27:39;98162.00;;;12.15;100.00
1616;BME280;801;47.982;7.810;2022-11-15T07:30:08;98153.19;;;12.04;100.00
1616;BME280;801;47.982;7.810;2022-11-15T07:32:34;98151.47;;;12.18;100.00
1616;BME280;801;47.982;7.810;2022-11-15T07:35:01;98150.91;;;12.21;100.00
1616;BME280;801;47.982;7.810;2022-11-15T07:37:27;98157.84;;;12.28;100.00
1616;BME280;801;47.982;7.810;2022-11-15T07:39:54;98154.34;;;12.27;100.00
1616;BME280;801;47.982;7.810;2022-11-15T07:42:20;98163.69;;;12.40;100.00
1616;BME280;801;47.982;7.810;2022-11-15T07:45:07;98157.50;;;12.39;100.00
1616;BME280;801;47.982;7.810;2022-11-15T07:47:34;98155.50;;;12.50;100.00
1616;BME280;801;47.982;7.810;2022-11-15T07:50:00;98153.56;;;12.27;100.00
1616;BME280;801;47.982;7.810;2022-11-15T07:52:27;98156.34;;;12.45;100.00
1616;BME280;801;47.982;7.810;2022-11-15T07:54:54;98152.00;;;12.50;100.00
1616;BME280;801;47.982;7.810;2022-11-15T07:57:20;98152.00;;;12.50;100.00
1616;BME280;801;47.982;7.810;2022-11-15T07:59:47;98146.59;;;12.55;100.00
1616;BME280;801;47.982;7.810;2022-11-15T08:02:15;98145.63;;;12.70;100.00
1616;BME280;801;47.982;7.810;2022-11-15T08:04:43;98145.41;;;12.66;100.00
1616;BME280;801;47.982;7.810;2022-11-15T08:07:10;98151.13;;;12.83;100.00
1616;BME280;801;47.982;7.810;2022-11-15T08:09:36;98142.84;;;12.80;100.00
1616;BME280;801;47.982;7.810;2022-11-15T08:12:03;98146.66;;;12.74;100.00
1616;BME280;801;47.982;7.810;2022-11-15T08:14:30;98141.69;;;12.86;100.00
1616;BME280;801;47.982;7.810;2022-11-15T08:16:57;98147.03;;;12.91;100.00
1616;BME280;801;47.982;7.810;2022-11-15T08:19:25;98136.22;;;12.67;100.00
1616;BME280;801;47.982;7.810;2022-11-15T08:21:51;98135.22;;;12.87;100.00
1616;BME280;801;47.982;7.810;2022-11-15T08:24:18;98135.72;;;12.89;100.00
1616;BME280;801;47.982;7.810;2022-11-15T08:26:45;98132.44;;;12.92;100.00
1616;BME280;801;47.982;7.810;2022-11-15T08:29:12;98129.47;;;12.94;100.00
1616;BME280;801;47.982;7.810;2022-11-15T08:31:39;98135.09;;;12.97;100.00
1616;BME280;801;47.982;7.810;2022-11-15T08:34:06;98126.00;;;12.88;100.00
1616;BME280;801;47.982;7.810;2022-11-15T08:36:34;98119.13;;;12.77;100.00
1616;BME280;801;47.982;7.810;2022-11-15T08:39:00;98124.88;;;12.94;100.00
1616;BME280;801;47.982;7.810;2022-11-15T08:41:30;98128.31;;;12.76;100.00
1616;BME280;801;47.982;7.810;2022-11-15T08:43:57;98128.50;;;12.84;100.00
1616;BME280;801;47.982;7.810;2022-11-15T08:46:24;98125.56;;;12.81;100.00
1616;BME280;801;47.982;7.810;2022-11-15T08:48:51;98124.81;;;12.75;100.00
1616;BME280;801;47.982;7.810;2022-11-15T08:51:18;98125.72;;;12.65;100.00
1616;BME280;801;47.982;7.810;2022-11-15T08:53:46;98130.84;;;12.91;100.00
1616;BME280;801;47.982;7.810;2022-11-15T08:56:14;98123.81;;;12.95;100.00
1616;BME280;801;47.982;7.810;2022-11-15T08:58:41;98129.63;;;12.78;100.00
1616;BME280;801;47.982;7.810;2022-11-15T09:01:14;98127.78;;;12.74;100.00
1616;BME280;801;47.982;7.810;2022-11-15T09:03:41;98127.00;;;12.73;100.00
1616;BME280;801;47.982;7.810;2022-11-15T09:06:08;98139.19;;;12.65;100.00
1616;BME280;801;47.982;7.810;2022-11-15T09:08:35;98139.91;;;12.47;100.00
1616;BME280;801;47.982;7.810;2022-11-15T09:11:04;98135.63;;;12.46;100.00
1616;BME280;801;47.982;7.810;2022-11-15T09:13:31;98144.13;;;12.58;100.00
1616;BME280;801;47.982;7.810;2022-11-15T09:15:58;98140.91;;;12.56;100.00
1616;BME280;801;47.982;7.810;2022-11-15T09:18:25;98142.09;;;12.45;100.00
1616;BME280;801;47.982;7.810;2022-11-15T09:20:55;98133.84;;;12.31;100.00
1616;BME280;801;47.982;7.810;2022-11-15T09:23:22;98125.84;;;12.50;100.00
1616;BME280;801;47.982;7.810;2022-11-15T09:25:49;98130.25;;;12.41;100.00
1616;BME280;801;47.982;7.810;2022-11-15T09:28:19;98126.34;;;12.57;100.00
1616;BME280;801;47.982;7.810;2022-11-15T09:30:46;98127.94;;;12.58;100.00
1616;BME280;801;47.982;7.810;2022-11-15T09:33:12;98127.41;;;12.85;100.00
1616;BME280;801;47.982;7.810;2022-11-15T09:35:39;98127.63;;;13.13;100.00
1616;BME280;801;47.982;7.810;2022-11-15T09:38:06;98127.56;;;13.18;100.00
1616;BME280;801;47.982;7.810;2022-11-15T09:40:36;98123.22;;;13.22;100.00
1616;BME280;801;47.982;7.810;2022-11-15T09:43:11;98117.13;;;13.36;100.00
1616;BME280;801;47.982;7.810;2022-11-15T09:45:51;98125.31;;;13.49;100.00
1616;BME280;801;47.982;7.810;2022-11-15T09:48:33;98118.69;;;13.61;100.00
1616;BME280;801;47.982;7.810;2022-11-15T09:51:04;98114.81;;;13.67;100.00
1616;BME280;801;47.982;7.810;2022-11-15T09:53:36;98110.59;;;13.61;100.00
1616;BME280;801;47.982;7.810;2022-11-15T09:56:14;98109.34;;;13.72;100.00
1616;BME280;801;47.982;7.810;2022-11-15T09:58:49;98110.22;;;13.86;100.00
1616;BME280;801;47.982;7.810;2022-11-15T10:01:33;98102.13;;;13.86;100.00
1616;BME280;801;47.982;7.810;2022-11-15T10:04:01;98087.94;;;13.95;100.00
1616;BME280;801;47.982;7.810;2022-11-15T10:06:28;98090.50;;;13.86;100.00
1616;BME280;801;47.982;7.810;2022-11-15T10:09:00;98087.38;;;13.98;100.00
1616;BME280;801;47.982;7.810;2022-11-15T10:11:30;98090.66;;;13.57;100.00
1616;BME280;801;47.982;7.810;2022-11-15T10:13:59;98093.56;;;13.79;100.00
1616;BME280;801;47.982;7.810;2022-11-15T10:17:02;98084.22;;;13.90;100.00
1616;BME280;801;47.982;7.810;2022-11-15T10:19:37;98072.16;;;14.02;100.00
1616;BME280;801;47.982;7.810;2022-11-15T10:22:19;98067.50;;;13.88;100.00
1616;BME280;801;47.982;7.810;2022-11-15T10:24:47;98067.34;;;13.99;100.00
1616;BME280;801;47.982;7.810;2022-11-15T10:27:16;98052.78;;;14.14;100.00
1616;BME280;801;47.982;7.810;2022-11-15T10:29:44;98055.38;;;14.05;100.00
1616;BME280;801;47.982;7.810;2022-11-15T10:32:13;98053.31;;;14.16;100.00
1616;BME280;801;47.982;7.810;2022-11-15T10:34:40;98043.41;;;14.25;100.00
1616;BME280;801;47.982;7.810;2022-11-15T10:37:07;98044.31;;;14.20;100.00
1616;BME280;801;47.982;7.810;2022-11-15T10:39:33;98032.41;;;14.35;100.00
1616;BME280;801;47.982;7.810;2022-11-15T10:42:15;98036.78;;;14.17;100.00
1616;BME280;801;47.982;7.810;2022-11-15T10:44:43;98034.53;;;14.38;100.00
1616;BME280;801;47.982;7.810;2022-11-15T10:47:35;98020.41;;;14.41;100.00
1616;BME280;801;47.982;7.810;2022-11-15T10:50:06;98019.38;;;14.37;100.00
1616;BME280;801;47.982;7.810;2022-11-15T10:52:35;98013.88;;;14.28;100.00
1616;BME280;801;47.982;7.810;2022-11-15T10:55:17;98012.19;;;14.32;100.00
1616;BME280;801;47.982;7.810;2022-11-15T10:57:50;98015.03;;;14.55;100.00
1616;BME280;801;47.982;7.810;2022-11-15T11:00:28;98004.78;;;14.52;100.00
1616;BME280;801;47.982;7.810;2022-11-15T11:02:59;98002.38;;;14.37;100.00
1616;BME280;801;47.982;7.810;2022-11-15T11:05:28;97996.56;;;14.29;100.00
1616;BME280;801;47.982;7.810;2022-11-15T11:07:58;97997.81;;;14.65;100.00
1616;BME280;801;47.982;7.810;2022-11-15T11:10:25;97992.19;;;14.61;100.00
1616;BME280;801;47.982;7.810;2022-11-15T11:12:52;97980.28;;;14.76;100.00
1616;BME280;801;47.982;7.810;2022-11-15T11:15:19;97971.97;;;14.72;100.00
1616;BME280;801;47.982;7.810;2022-11-15T11:17:54;97982.97;;;14.90;100.00
1616;BME280;801;47.982;7.810;2022-11-15T11:20:30;97972.03;;;14.95;100.00
1616;BME280;801;47.982;7.810;2022-11-15T11:23:12;97972.66;;;14.78;100.00
1616;BME280;801;47.982;7.810;2022-11-15T11:25:50;97972.22;;;14.99;100.00
1616;BME280;801;47.982;7.810;2022-11-15T11:28:33;97963.44;;;15.15;100.00
1616;BME280;801;47.982;7.810;2022-11-15T11:31:18;97957.88;;;15.34;100.00
1616;BME280;801;47.982;7.810;2022-11-15T11:33:54;97954.38;;;15.11;100.00
1616;BME280;801;47.982;7.810;2022-11-15T11:36:34;97946.84;;;15.08;100.00
1616;BME280;801;47.982;7.810;2022-11-15T11:39:18;97938.56;;;14.91;100.00
1616;BME280;801;47.982;7.810;2022-11-15T11:41:55;97936.03;;;15.31;100.00
1616;BME280;801;47.982;7.810;2022-11-15T11:44:30;97927.97;;;15.40;100.00
1616;BME280;801;47.982;7.810;2022-11-15T11:47:00;97926.47;;;14.74;100.00
1616;BME280;801;47.982;7.810;2022-11-15T11:49:32;97922.69;;;15.12;100.00
1616;BME280;801;47.982;7.810;2022-11-15T11:52:08;97917.22;;;15.26;100.00
1616;BME280;801;47.982;7.810;2022-11-15T11:54:42;97913.88;;;15.29;100.00
1616;BME280;801;47.982;7.810;2022-11-15T11:57:18;97913.66;;;15.39;100.00
1616;BME280;801;47.982;7.810;2022-11-15T11:59:52;97910.66;;;15.49;100.00
1616;BME280;801;47.982;7.810;2022-11-15T12:02:26;97912.22;;;15.42;100.00
1616;BME280;801;47.982;7.810;2022-11-15T12:05:05;97908.09;;;15.22;100.00
1616;BME280;801;47.982;7.810;2022-11-15T12:07:38;97895.91;;;15.10;100.00
1616;BME280;801;47.982;7.810;2022-11-15T12:10:15;97886.44;;;14.99;100.00
1616;BME280;801;47.982;7.810;2022-11-15T12:12:51;97891.56;;;14.87;100.00
1616;BME280;801;47.982;7.810;2022-11-15T12:15:22;97880.66;;;14.92;100.00
1616;BME280;801;47.982;7.810;2022-11-15T12:17:50;97881.31;;;14.75;100.00
1616;BME280;801;47.982;7.810;2022-11-15T12:20:18;97871.19;;;14.81;100.00
1616;BME280;801;47.982;7.810;2022-11-15T12:22:53;97864.63;;;14.59;100.00
1616;BME280;801;47.982;7.810;2022-11-15T12:25:27;97862.31;;;14.89;100.00
1616;BME280;801;47.982;7.810;2022-11-15T12:27:58;97864.91;;;14.71;100.00
1616;BME280;801;47.982;7.810;2022-11-15T12:30:37;97860.84;;;14.60;100.00
1616;BME280;801;47.982;7.810;2022-11-15T12:33:29;97860.81;;;14.46;100.00
1616;BME280;801;47.982;7.810;2022-11-15T12:35:59;97860.25;;;14.36;100.00
1616;BME280;801;47.982;7.810;2022-11-15T12:38:53;97861.22;;;14.40;100.00
1616;BME280;801;47.982;7.810;2022-11-15T12:41:21;97851.22;;;14.26;100.00
1616;BME280;801;47.982;7.810;2022-11-15T12:43:48;97851.53;;;14.39;100.00
1616;BME280;801;47.982;7.810;2022-11-15T12:49:43;97828.25;;;14.01;100.00
1616;BME280;801;47.982;7.810;2022-11-15T12:52:11;97823.03;;;14.19;100.00
1616;BME280;801;47.982;7.810;2022-11-15T12:55:00;97826.88;;;14.54;100.00
1616;BME280;801;47.982;7.810;2022-11-15T12:57:36;97829.94;;;14.25;100.00
1616;BME280;801;47.982;7.810;2022-11-15T13:06:05;97809.41;;;14.74;100.00
1616;BME280;801;47.982;7.810;2022-11-15T13:08:42;97799.25;;;14.57;100.00
1616;BME280;801;47.982;7.810;2022-11-15T13:11:51;97791.50;;;14.64;100.00
1616;BME280;801;47.982;7.810;2022-11-15T13:14:50;97782.28;;;14.29;100.00
1616;BME280;801;47.982;7.810;2022-11-15T13:17:35;97779.53;;;14.43;100.00
1616;BME280;801;47.982;7.810;2022-11-15T13:20:18;97778.13;;;14.82;100.00
1616;BME280;801;47.982;7.810;2022-11-15T13:22:46;97775.72;;;14.80;100.00
1616;BME280;801;47.982;7.810;2022-11-15T13:25:30;97776.44;;;15.17;100.00
1616;BME280;801;47.982;7.810;2022-11-15T13:28:02;97779.22;;;14.58;100.00
1616;BME280;801;47.982;7.810;2022-11-15T13:30:30;97774.47;;;14.64;100.00
1616;BME280;801;47.982;7.810;2022-11-15T13:32:59;97757.53;;;14.36;100.00
1616;BME280;801;47.982;7.810;2022-11-15T13:35:28;97742.63;;;14.38;100.00
1616;BME280;801;47.982;7.810;2022-11-15T13:38:03;97745.66;;;14.23;100.00
1616;BME280;801;47.982;7.810;2022-11-15T13:40:35;97743.81;;;14.68;100.00
1616;BME280;801;47.982;7.810;2022-11-15T13:43:22;97744.38;;;14.79;100.00
1616;BME280;801;47.982;7.810;2022-11-15T13:46:07;97734.97;;;14.77;100.00
1616;BME280;801;47.982;7.810;2022-11-15T13:48:34;97729.28;;;14.42;100.00
1616;BME280;801;47.982;7.810;2022-11-15T13:51:02;97726.09;;;14.62;100.00
1616;BME280;801;47.982;7.810;2022-11-15T13:53:32;97719.97;;;14.70;100.00
1616;BME280;801;47.982;7.810;2022-11-15T13:56:00;97718.44;;;14.78;100.00
1616;BME280;801;47.982;7.810;2022-11-15T13:58:30;97717.69;;;14.86;100.00
1616;BME280;801;47.982;7.810;2022-11-15T14:00:59;97710.63;;;14.54;100.00
1616;BME280;801;47.982;7.810;2022-11-15T14:03:28;97710.63;;;14.31;100.00
1616;BME280;801;47.982;7.810;2022-11-15T14:06:03;97702.56;;;14.04;100.00
1616;BME280;801;47.982;7.810;2022-11-15T14:08:31;97701.16;;;14.43;100.00
1616;BME280;801;47.982;7.810;2022-11-15T14:11:15;97708.16;;;14.66;100.00
1616;BME280;801;47.982;7.810;2022-11-15T14:14:08;97705.59;;;14.61;100.00
1616;BME280;801;47.982;7.810;2022-11-15T14:16:38;97692.28;;;14.51;100.00
1616;BME280;801;47.982;7.810;2022-11-15T14:19:08;97690.41;;;14.51;100.00
1616;BME280;801;47.982;7.810;2022-11-15T14:21:36;97689.28;;;14.52;100.00
1616;BME280;801;47.982;7.810;2022-11-15T14:24:15;97688.38;;;14.35;100.00
1616;BME280;801;47.982;7.810;2022-11-15T14:26:42;97679.03;;;14.41;100.00
1616;BME280;801;47.982;7.810;2022-11-15T14:29:23;97679.22;;;14.44;100.00
1616;BME280;801;47.982;7.810;2022-11-15T14:31:50;97676.41;;;14.27;100.00
1616;BME280;801;47.982;7.810;2022-11-15T14:34:16;97670.97;;;14.04;100.00
1616;BME280;801;47.982;7.810;2022-11-15T14:36:43;97668.41;;;13.85;100.00
1616;BME280;801;47.982;7.810;2022-11-15T14:39:10;97657.53;;;13.77;100.00
1616;BME280;801;47.982;7.810;2022-11-15T14:41:37;97657.94;;;14.06;100.00
1616;BME280;801;47.982;7.810;2022-11-15T14:44:04;97661.47;;;14.07;100.00
1616;BME280;801;47.982;7.810;2022-11-15T14:46:33;97657.75;;;13.80;100.00
1616;BME280;801;47.982;7.810;2022-11-15T14:48:59;97657.91;;;13.98;100.00
1616;BME280;801;47.982;7.810;2022-11-15T14:51:26;97649.16;;;14.01;100.00
1616;BME280;801;47.982;7.810;2022-11-15T14:53:52;97646.84;;;14.08;100.00
1616;BME280;801;47.982;7.810;2022-11-15T14:56:20;97642.41;;;13.89;100.00
1616;BME280;801;47.982;7.810;2022-11-15T14:58:47;97636.81;;;14.08;100.00
1616;BME280;801;47.982;7.810;2022-11-15T15:01:16;97631.03;;;13.79;100.00
1616;BME280;801;47.982;7.810;2022-11-15T15:03:45;97637.31;;;14.10;100.00
1616;BME280;801;47.982;7.810;2022-11-15T15:06:11;97626.69;;;13.91;100.00
1616;BME280;801;47.982;7.810;2022-11-15T15:08:38;97629.31;;;13.83;100.00
1616;BME280;801;47.982;7.810;2022-11-15T15:11:09;97624.72;;;13.83;100.00
1616;BME280;801;47.982;7.810;2022-11-15T15:13:37;97620.31;;;13.37;100.00
1616;BME280;801;47.982;7.810;2022-11-15T15:16:04;97622.25;;;13.73;100.00
1616;BME280;801;47.982;7.810;2022-11-15T15:18:31;97615.31;;;13.17;100.00
1616;BME280;801;47.982;7.810;2022-11-15T15:21:00;97606.44;;;13.30;100.00
1616;BME280;801;47.982;7.810;2022-11-15T15:23:32;97600.91;;;13.21;100.00
1616;BME280;801;47.982;7.810;2022-11-15T15:26:00;97603.31;;;13.37;100.00
1616;BME280;801;47.982;7.810;2022-11-15T15:28:27;97596.75;;;13.29;100.00
1616;BME280;801;47.982;7.810;2022-11-15T15:30:54;97596.41;;;13.17;100.00
1616;BME280;801;47.982;7.810;2022-11-15T15:33:20;97587.75;;;13.34;100.00
1616;BME280;801;47.982;7.810;2022-11-15T15:35:47;97595.13;;;13.28;100.00
1616;BME280;801;47.982;7.810;2022-11-15T15:38:15;97584.94;;;13.25;100.00
1616;BME280;801;47.982;7.810;2022-11-15T15:40:42;97577.16;;;13.09;100.00
1616;BME280;801;47.982;7.810;2022-11-15T15:43:08;97582.84;;;13.22;100.00
1616;BME280;801;47.982;7.810;2022-11-15T15:45:36;97578.84;;;13.19;100.00
1616;BME280;801;47.982;7.810;2022-11-15T15:48:04;97573.38;;;13.11;100.00
1616;BME280;801;47.982;7.810;2022-11-15T15:50:33;97582.34;;;13.20;100.00
1616;BME280;801;47.982;7.810;2022-11-15T15:53:02;97573.56;;;13.28;100.00
1616;BME280;801;47.982;7.810;2022-11-15T15:55:30;97575.47;;;13.14;100.00
1616;BME280;801;47.982;7.810;2022-11-15T15:57:57;97573.25;;;13.16;100.00
1616;BME280;801;47.982;7.810;2022-11-15T16:00:24;97568.78;;;13.11;100.00
1616;BME280;801;47.982;7.810;2022-11-15T16:02:52;97570.44;;;13.21;100.00
1616;BME280;801;47.982;7.810;2022-11-15T16:05:19;97568.53;;;13.21;100.00
1616;BME280;801;47.982;7.810;2022-11-15T16:07:45;97570.03;;;13.41;100.00
1616;BME280;801;47.982;7.810;2022-11-15T16:10:19;97573.72;;;13.45;100.00
1616;BME280;801;47.982;7.810;2022-11-15T16:12:48;97564.38;;;13.29;100.00
1616;BME280;801;47.982;7.810;2022-11-15T16:15:15;97567.97;;;13.38;100.00
1616;BME280;801;47.982;7.810;2022-11-15T16:17:45;97558.56;;;13.22;100.00
1616;BME280;801;47.982;7.810;2022-11-15T16:20:22;97560.28;;;13.18;100.00
1616;BME280;801;47.982;7.810;2022-11-15T16:22:49;97547.59;;;12.77;100.00
1616;BME280;801;47.982;7.810;2022-11-15T16:25:15;97551.75;;;13.38;100.00
1616;BME280;801;47.982;7.810;2022-11-15T16:27:42;97549.28;;;13.28;100.00
1616;BME280;801;47.982;7.810;2022-11-15T16:30:14;97545.75;;;13.27;100.00
1616;BME280;801;47.982;7.810;2022-11-15T16:32:41;97556.53;;;13.41;100.00
1616;BME280;801;47.982;7.810;2022-11-15T16:35:10;97555.72;;;13.55;100.00
1616;BME280;801;47.982;7.810;2022-11-15T16:37:37;97551.69;;;13.16;100.00
1616;BME280;801;47.982;7.810;2022-11-15T16:40:07;97553.97;;;13.22;100.00
1616;BME280;801;47.982;7.810;2022-11-15T16:42:37;97553.09;;;13.13;100.00
1616;BME280;801;47.982;7.810;2022-11-15T16:45:04;97553.19;;;13.22;100.00
1616;BME280;801;47.982;7.810;2022-11-15T16:47:32;97556.38;;;12.96;100.00
1616;BME280;801;47.982;7.810;2022-11-15T16:49:58;97559.78;;;13.16;100.00
1616;BME280;801;47.982;7.810;2022-11-15T16:52:25;97555.78;;;13.13;100.00
1616;BME280;801;47.982;7.810;2022-11-15T16:54:51;97561.66;;;13.01;100.00
1616;BME280;801;47.982;7.810;2022-11-15T16:57:18;97549.00;;;12.88;100.00
1616;BME280;801;47.982;7.810;2022-11-15T16:59:46;97547.41;;;12.87;100.00
1616;BME280;801;47.982;7.810;2022-11-15T17:02:13;97555.19;;;12.75;100.00
1616;BME280;801;47.982;7.810;2022-11-15T17:04:41;97543.53;;;12.79;100.00
1616;BME280;801;47.982;7.810;2022-11-15T17:07:07;97539.00;;;12.75;100.00
1616;BME280;801;47.982;7.810;2022-11-15T17:09:34;97541.72;;;12.75;100.00
1616;BME280;801;47.982;7.810;2022-11-15T17:12:00;97550.13;;;12.73;100.00
1616;BME280;801;47.982;7.810;2022-11-15T17:14:27;97543.72;;;13.11;100.00
1616;BME280;801;47.982;7.810;2022-11-15T17:16:53;97543.97;;;13.23;100.00